Time;durP1;ratioP1;P1;durP2;ratioP2;P2;SDS_P1;SDS_P2;PMS_P1;PMS_P2;Temp;Humidity;BMP_temperature;BMP_pressure;BME280_temperature;BME280_humidity;BME280_pressure;Samples;Min_cycle;Max_cycle;Signal;HPM_P1;HPM_P2
2021/10/30 00:01:32;;;;;;;19.92;7.40;;;;;;;9.76;100.00;100497.09;5204034;28;20104;-74
2021/10/30 00:04:02;;;;;;;11.63;6.55;;;;;;;9.68;100.00;100494.44;5199678;28;20108;-74
2021/10/30 00:06:33;;;;;;;12.52;7.45;;;;;;;9.65;100.00;100515.38;5199509;28;20509;-74
2021/10/30 00:09:03;;;;;;;19.52;7.95;;;;;;;9.60;100.00;100506.00;5198786;28;20027;-74
2021/10/30 00:11:34;;;;;;;12.85;8.00;;;;;;;9.58;100.00;100497.28;5199559;28;20555;-74
2021/10/30 00:14:04;;;;;;;13.63;7.85;;;;;;;9.56;100.00;100488.59;5199668;28;20029;-74
2021/10/30 00:16:35;;;;;;;22.58;9.15;;;;;;;9.54;100.00;100490.59;5199364;28;20068;-74
2021/10/30 00:19:05;;;;;;;15.45;8.32;;;;;;;9.48;100.00;100480.53;5198922;28;20030;-73
2021/10/30 00:21:36;;;;;;;16.02;8.10;;;;;;;9.42;100.00;100473.19;5199321;28;20025;-74
2021/10/30 00:24:06;;;;;;;15.57;8.45;;;;;;;9.40;100.00;100479.72;5199358;28;20025;-74
2021/10/30 00:26:37;;;;;;;13.18;7.50;;;;;;;9.40;100.00;100474.38;5198597;28;20025;-74
2021/10/30 00:29:07;;;;;;;16.77;9.45;;;;;;;9.40;100.00;100469.03;5198878;28;20031;-73
2021/10/30 00:31:37;;;;;;;15.57;8.75;;;;;;;9.34;100.00;100465.19;5199802;28;20025;-74
2021/10/30 00:34:08;;;;;;;14.82;8.32;;;;;;;9.30;100.00;100464.66;5198971;28;20488;-74
2021/10/30 00:36:38;;;;;;;17.38;8.40;;;;;;;9.26;100.00;100462.50;5199132;28;20458;-74
2021/10/30 00:39:09;;;;;;;18.50;8.40;;;;;;;9.24;100.00;100456.47;5198300;28;20036;-74
2021/10/30 00:41:39;;;;;;;17.33;9.85;;;;;;;9.31;100.00;100460.16;5199586;28;20053;-74
2021/10/30 00:44:11;;;;;;;20.02;9.88;;;;;;;9.36;100.00;100460.47;5198861;28;20075;-74
2021/10/30 00:46:43;;;;;;;18.25;9.40;;;;;;;9.32;100.00;100459.97;5198774;28;20076;-74
2021/10/30 00:49:15;;;;;;;17.50;9.95;;;;;;;9.32;100.00;100461.81;5198288;28;20032;-74
2021/10/30 00:51:50;;;;;;;17.90;8.93;;;;;;;9.32;100.00;100451.94;5198715;28;20033;-74
2021/10/30 00:54:23;;;;;;;19.25;9.45;;;;;;;9.31;100.00;100460.16;5199097;28;20556;-74
2021/10/30 00:56:57;;;;;;;16.88;9.65;;;;;;;9.30;100.00;100450.44;5198434;28;20045;-74
2021/10/30 00:59:27;;;;;;;20.15;10.65;;;;;;;9.31;100.00;100447.59;5197825;28;20037;-74
2021/10/30 01:01:58;;;;;;;17.98;9.82;;;;;;;9.33;100.00;100436.72;5199291;28;20021;-74
2021/10/30 01:04:30;;;;;;;17.65;10.32;;;;;;;9.32;100.00;100435.88;5198938;28;20021;-74
2021/10/30 01:07:04;;;;;;;19.80;10.10;;;;;;;9.37;100.00;100430.03;5198840;28;20064;-74
2021/10/30 01:09:34;;;;;;;24.33;11.95;;;;;;;9.47;100.00;100433.34;5198192;28;20113;-73
2021/10/30 01:12:05;;;;;;;23.63;11.60;;;;;;;9.54;100.00;100428.19;5198976;28;20025;-74
2021/10/30 01:14:42;;;;;;;18.15;9.65;;;;;;;9.55;100.00;100432.53;5198913;28;20405;-74
2021/10/30 01:17:33;;;;;;;22.00;11.20;;;;;;;9.54;100.00;100438.91;5197648;28;20037;-74
2021/10/30 01:20:04;;;;;;;21.92;10.95;;;;;;;9.53;100.00;100431.84;5183321;28;20036;-74
2021/10/30 01:22:50;;;;;;;19.10;10.68;;;;;;;9.59;100.00;100426.66;5199048;28;20032;-74
2021/10/30 01:25:42;;;;;;;21.83;11.10;;;;;;;9.66;100.00;100424.13;5211657;28;20029;-74
2021/10/30 01:28:28;;;;;;;20.20;10.57;;;;;;;9.65;100.00;100416.28;5198024;28;20679;-74
2021/10/30 01:31:03;;;;;;;22.48;10.07;;;;;;;9.60;100.00;100409.59;5198210;28;20025;-74
2021/10/30 01:33:34;;;;;;;20.92;10.43;;;;;;;9.54;100.00;100404.91;5198149;28;20716;-74
2021/10/30 01:36:09;;;;;;;19.13;10.27;;;;;;;9.53;100.00;100402.38;5196817;28;20029;-74
2021/10/30 01:38:39;;;;;;;17.05;9.70;;;;;;;9.53;100.00;100389.00;5197497;28;20041;-74
2021/10/30 01:41:10;;;;;;;18.17;10.13;;;;;;;9.53;100.00;100379.13;5197999;28;20071;-74
2021/10/30 01:43:42;;;;;;;19.52;10.85;;;;;;;9.53;100.00;100380.97;5197857;28;20029;-74
2021/10/30 01:46:12;;;;;;;23.30;11.35;;;;;;;9.56;100.00;100373.44;5198228;28;20017;-74
2021/10/30 01:48:43;;;;;;;19.77;10.88;;;;;;;9.60;100.00;100368.56;5197611;28;20033;-74
2021/10/30 01:51:14;;;;;;;22.48;11.27;;;;;;;9.62;100.00;100358.50;5197803;28;20030;-74
2021/10/30 01:53:49;;;;;;;21.60;10.93;;;;;;;9.64;100.00;100369.03;5197889;28;20036;-72
2021/10/30 01:56:20;;;;;;;21.20;11.30;;;;;;;9.67;100.00;100363.34;5197942;28;20033;-72
2021/10/30 01:58:51;;;;;;;17.05;10.20;;;;;;;9.67;100.00;100348.13;5197694;28;20025;-74
2021/10/30 02:01:23;;;;;;;17.67;9.10;;;;;;;9.71;100.00;100333.38;5198078;28;20025;-74
2021/10/30 02:03:53;;;;;;;22.98;10.50;;;;;;;9.68;100.00;100347.09;5196046;28;20393;-74
2021/10/30 02:06:24;;;;;;;20.08;9.90;;;;;;;9.69;100.00;100347.94;5197556;28;20025;-74
2021/10/30 02:08:55;;;;;;;17.98;9.68;;;;;;;9.69;100.00;100346.13;5197210;28;20029;-73
2021/10/30 02:11:26;;;;;;;19.45;10.38;;;;;;;9.69;100.00;100334.53;5198032;28;20025;-74
2021/10/30 02:13:57;;;;;;;25.08;11.05;;;;;;;9.74;100.00;100333.06;5197787;28;20297;-74
2021/10/30 02:16:28;;;;;;;23.70;11.10;;;;;;;9.79;100.00;100319.13;5197488;28;20059;-74
2021/10/30 02:18:58;;;;;;;16.90;10.30;;;;;;;9.86;100.00;100320.94;5196655;28;20041;-74
2021/10/30 02:21:29;;;;;;;24.45;10.88;;;;;;;9.91;100.00;100315.06;5197503;28;20028;-74
2021/10/30 02:23:59;;;;;;;21.13;11.18;;;;;;;9.94;100.00;100301.31;5197506;28;20028;-74
2021/10/30 02:26:29;;;;;;;22.25;12.25;;;;;;;10.01;100.00;100298.75;5197289;28;20021;-74
2021/10/30 02:29:00;;;;;;;24.65;12.25;;;;;;;10.04;100.00;100301.94;5196710;28;20025;-73
2021/10/30 02:31:31;;;;;;;24.05;11.43;;;;;;;10.12;100.00;100290.31;5197255;28;20029;-74
2021/10/30 02:34:01;;;;;;;30.90;12.02;;;;;;;10.19;100.00;100287.75;5197599;28;20036;-74
2021/10/30 02:36:31;;;;;;;22.30;12.07;;;;;;;10.33;100.00;100305.78;5197223;28;20498;-74
2021/10/30 02:39:02;;;;;;;21.63;11.77;;;;;;;10.42;100.00;100290.47;5191267;28;20426;-74
2021/10/30 02:41:33;;;;;;;20.10;11.32;;;;;;;10.51;100.00;100278.69;5189149;28;20029;-74
2021/10/30 02:44:04;;;;;;;19.17;10.88;;;;;;;10.54;100.00;100278.31;5197388;28;20017;-74
2021/10/30 02:46:35;;;;;;;19.38;11.10;;;;;;;10.55;100.00;100272.78;5197056;28;20677;-74
2021/10/30 02:49:05;;;;;;;19.33;10.48;;;;;;;10.58;100.00;100271.59;5196746;28;20029;-74
2021/10/30 02:51:36;;;;;;;20.27;10.95;;;;;;;10.60;100.00;100273.09;5212409;28;20021;-74
2021/10/30 02:54:06;;;;;;;19.10;10.82;;;;;;;10.60;100.00;100261.53;5197665;28;20078;-74
2021/10/30 02:56:37;;;;;;;20.15;10.82;;;;;;;10.61;100.00;100247.91;5197068;28;20128;-74
2021/10/30 02:59:07;;;;;;;22.58;10.85;;;;;;;10.61;100.00;100242.56;5196763;28;20053;-74
2021/10/30 03:01:38;;;;;;;22.25;11.48;;;;;;;10.63;100.00;100242.38;5196946;28;20026;-74
2021/10/30 03:04:08;;;;;;;20.17;11.00;;;;;;;10.67;100.00;100242.84;5197095;28;20068;-74
2021/10/30 03:06:39;;;;;;;19.23;10.77;;;;;;;10.68;100.00;100239.13;5195793;28;20025;-74
2021/10/30 03:09:10;;;;;;;22.00;10.23;;;;;;;10.69;100.00;100243.47;5203349;28;20017;-74
2021/10/30 03:11:40;;;;;;;21.95;11.55;;;;;;;10.69;100.00;100230.06;5196958;28;20021;-74
2021/10/30 03:14:11;;;;;;;22.55;11.60;;;;;;;10.70;100.00;100226.41;5197122;28;20109;-74
2021/10/30 03:16:41;;;;;;;17.80;10.15;;;;;;;10.74;100.00;100217.78;5196728;28;20684;-74
2021/10/30 03:19:12;;;;;;;19.08;9.73;;;;;;;10.74;100.00;100225.00;5195360;28;20025;-74
2021/10/30 03:21:42;;;;;;;21.55;10.10;;;;;;;10.72;100.00;100216.31;5212219;28;20092;-74
2021/10/30 03:24:13;;;;;;;20.58;9.52;;;;;;;10.69;100.00;100214.81;5196932;28;20055;-74
2021/10/30 03:26:43;;;;;;;17.20;9.95;;;;;;;10.70;100.00;100218.34;5196892;28;20481;-74
2021/10/30 03:29:14;;;;;;;19.35;10.85;;;;;;;10.69;100.00;100212.13;5211843;28;20056;-74
2021/10/30 03:31:44;;;;;;;17.98;11.10;;;;;;;10.71;100.00;100203.91;5198220;28;20087;-74
2021/10/30 03:34:15;;;;;;;20.25;10.52;;;;;;;10.71;100.00;100201.22;5201051;28;20101;-74
2021/10/30 03:36:45;;;;;;;18.85;9.95;;;;;;;10.70;100.00;100202.25;5200341;28;20025;-74
2021/10/30 03:39:16;;;;;;;17.17;8.88;;;;;;;10.69;100.00;100195.19;5200351;28;20036;-74
2021/10/30 03:41:46;;;;;;;21.83;9.85;;;;;;;10.69;100.00;100189.84;5200067;28;20037;-74
2021/10/30 03:44:17;;;;;;;14.90;8.90;;;;;;;10.68;100.00;100185.50;5200452;28;20109;-74
2021/10/30 03:46:47;;;;;;;19.15;9.52;;;;;;;10.68;100.00;100185.50;5199765;28;20108;-74
2021/10/30 03:49:18;;;;;;;17.85;10.07;;;;;;;10.66;100.00;100182.16;5199737;28;20025;-74
2021/10/30 03:51:48;;;;;;;20.05;9.30;;;;;;;10.66;100.00;100191.03;5200192;28;20671;-73
2021/10/30 03:54:18;;;;;;;21.42;11.43;;;;;;;10.68;100.00;100198.91;5200229;28;20025;-73
2021/10/30 03:56:49;;;;;;;19.73;10.65;;;;;;;10.66;100.00;100192.91;5199791;28;20112;-73
2021/10/30 03:59:20;;;;;;;21.02;10.45;;;;;;;10.68;100.00;100191.69;5198459;28;20021;-74
2021/10/30 04:01:51;;;;;;;18.65;10.07;;;;;;;10.71;100.00;100190.50;5200374;28;20091;-74
2021/10/30 04:04:21;;;;;;;18.60;9.70;;;;;;;10.74;100.00;100190.94;5200373;28;20514;-74
2021/10/30 04:06:51;;;;;;;23.10;11.48;;;;;;;10.77;100.00;100190.59;5202136;28;20040;-74
2021/10/30 04:09:24;;;;;;;22.83;10.70;;;;;;;10.80;100.00;100192.09;5200902;28;20032;-74
2021/10/30 04:11:54;;;;;;;19.90;9.93;;;;;;;10.81;100.00;100181.16;5215579;28;20022;-74
2021/10/30 04:14:24;;;;;;;17.92;9.55;;;;;;;10.87;100.00;100184.97;5200667;28;20021;-74
2021/10/30 04:16:55;;;;;;;20.30;10.73;;;;;;;10.90;100.00;100181.91;5200022;28;20025;-74
2021/10/30 04:19:25;;;;;;;16.63;10.10;;;;;;;10.91;100.00;100175.53;5199496;28;20709;-74
2021/10/30 04:21:56;;;;;;;17.48;8.98;;;;;;;10.94;100.00;100174.31;5199810;28;20037;-75
2021/10/30 04:24:26;;;;;;;17.90;10.07;;;;;;;10.96;100.00;100172.28;5199896;28;20033;-74
2021/10/30 04:26:57;;;;;;;16.05;8.73;;;;;;;11.01;100.00;100172.56;5199359;28;20029;-75
2021/10/30 04:29:27;;;;;;;17.13;8.65;;;;;;;11.03;100.00;100167.84;5197492;28;20026;-75
2021/10/30 04:32:00;;;;;;;22.40;9.38;;;;;;;11.07;100.00;100169.97;5199015;28;20039;-74
2021/10/30 04:34:41;;;;;;;17.15;9.25;;;;;;;11.12;100.00;100161.34;5214951;28;20037;-74
2021/10/30 04:37:17;;;;;;;15.00;8.38;;;;;;;11.14;100.00;100159.31;5199168;28;20025;-74
2021/10/30 04:39:50;;;;;;;15.35;8.90;;;;;;;11.14;100.00;100157.47;5198447;28;20079;-73
2021/10/30 04:42:21;;;;;;;15.65;8.43;;;;;;;11.14;100.00;100137.84;5198667;28;20112;-77
2021/10/30 04:44:51;;;;;;;17.35;8.77;;;;;;;11.15;100.00;100143.03;5199937;28;20120;-79
2021/10/30 04:47:23;;;;;;;16.38;8.05;;;;;;;11.15;100.00;100134.97;5214964;28;20024;-75
2021/10/30 04:49:54;;;;;;;14.70;9.15;;;;;;;11.15;100.00;100137.66;5198799;28;20108;-76
2021/10/30 04:52:24;;;;;;;14.88;8.40;;;;;;;11.14;100.00;100125.28;5198605;28;20108;-76
2021/10/30 04:54:55;;;;;;;16.35;8.63;;;;;;;11.17;100.00;100123.22;5198909;28;20048;-74
2021/10/30 04:57:25;;;;;;;14.68;8.45;;;;;;;11.18;100.00;100112.28;5197608;28;20033;-74
2021/10/30 04:59:56;;;;;;;14.32;8.57;;;;;;;11.15;100.00;100113.50;5198393;28;20522;-74
2021/10/30 05:02:26;;;;;;;14.45;7.88;;;;;;;11.17;100.00;100104.41;5199043;28;20073;-74
2021/10/30 05:04:57;;;;;;;16.33;8.68;;;;;;;11.16;100.00;100106.28;5198512;28;20163;-74
2021/10/30 05:07:27;;;;;;;15.05;8.10;;;;;;;11.11;100.00;100101.47;5198553;28;20048;-74
2021/10/30 05:09:57;;;;;;;17.33;8.32;;;;;;;11.12;100.00;100089.72;5213804;28;20025;-74
2021/10/30 05:12:28;;;;;;;17.20;8.80;;;;;;;11.14;100.00;100097.56;5198954;28;20104;-74
2021/10/30 05:14:58;;;;;;;16.33;8.65;;;;;;;11.11;100.00;100090.72;5198770;28;20021;-75
2021/10/30 05:17:29;;;;;;;15.50;8.88;;;;;;;11.10;100.00;100088.25;5197770;28;20028;-74
2021/10/30 05:19:59;;;;;;;15.27;8.65;;;;;;;11.11;100.00;100095.28;5198339;28;20035;-73
2021/10/30 05:22:30;;;;;;;15.43;8.88;;;;;;;11.10;100.00;100097.13;5198362;28;20505;-74
2021/10/30 05:25:00;;;;;;;12.70;7.40;;;;;;;11.12;100.00;100100.44;5198212;28;20450;-74
2021/10/30 05:27:31;;;;;;;14.45;8.30;;;;;;;11.15;100.00;100097.41;5197692;28;20045;-73
2021/10/30 05:30:02;;;;;;;18.08;7.82;;;;;;;11.16;100.00;100087.50;5197885;28;20040;-73
2021/10/30 05:32:33;;;;;;;15.60;8.13;;;;;;;11.14;100.00;100078.78;5197965;28;20022;-75
2021/10/30 05:35:04;;;;;;;13.82;8.15;;;;;;;11.12;100.00;100080.81;5213581;28;20052;-73
2021/10/30 05:37:34;;;;;;;16.92;7.75;;;;;;;11.13;100.00;100082.47;5197745;28;20025;-74
2021/10/30 05:40:08;;;;;;;17.88;8.93;;;;;;;11.12;100.00;100073.59;5186519;28;20021;-74
2021/10/30 05:42:42;;;;;;;18.98;7.68;;;;;;;11.16;100.00;100079.44;5196176;28;20120;-74
2021/10/30 05:45:12;;;;;;;14.35;7.53;;;;;;;11.11;100.00;100071.13;5195539;28;20156;-74
2021/10/30 05:47:43;;;;;;;13.68;7.53;;;;;;;11.13;100.00;100058.31;5212569;28;20025;-73
2021/10/30 05:50:13;;;;;;;14.70;7.88;;;;;;;11.15;100.00;100043.72;5196249;28;20021;-73
2021/10/30 05:52:44;;;;;;;19.40;8.00;;;;;;;11.14;100.00;100052.78;5196949;28;20064;-74
2021/10/30 05:55:14;;;;;;;17.65;7.93;;;;;;;11.14;100.00;100068.03;5196241;28;20117;-73
2021/10/30 05:57:45;;;;;;;14.82;7.05;;;;;;;11.15;100.00;100086.66;5196555;28;20593;-74
2021/10/30 06:00:15;;;;;;;13.68;6.85;;;;;;;11.20;100.00;100087.94;5195535;28;20117;-74
2021/10/30 06:02:46;;;;;;;13.18;7.18;;;;;;;11.18;100.00;100058.59;5196000;28;20037;-73
2021/10/30 06:05:16;;;;;;;16.45;7.32;;;;;;;11.18;100.00;100080.06;5197118;28;20029;-75
2021/10/30 06:07:47;;;;;;;14.07;7.25;;;;;;;11.19;100.00;100076.34;5196912;28;20156;-74
2021/10/30 06:10:17;;;;;;;15.82;7.68;;;;;;;11.19;100.00;100070.16;5196957;28;20025;-75
2021/10/30 06:12:48;;;;;;;13.32;7.22;;;;;;;11.18;100.00;100068.50;5196809;28;20116;-74
2021/10/30 06:15:19;;;;;;;14.02;7.10;;;;;;;11.16;100.00;100063.31;5196083;28;20401;-74
2021/10/30 06:17:49;;;;;;;13.43;7.93;;;;;;;11.19;100.00;100064.78;5196332;28;20026;-74
2021/10/30 06:20:20;;;;;;;11.52;6.90;;;;;;;11.18;100.00;100045.16;5196278;28;20034;-74
2021/10/30 06:22:50;;;;;;;13.63;6.88;;;;;;;11.21;100.00;100046.66;5196708;28;20513;-73
2021/10/30 06:25:21;;;;;;;9.32;6.20;;;;;;;11.28;100.00;100036.81;5197162;28;20564;-75
2021/10/30 06:27:51;;;;;;;11.63;6.30;;;;;;;11.28;100.00;100037.63;5196716;28;20111;-74
2021/10/30 06:30:22;;;;;;;11.75;6.72;;;;;;;11.28;100.00;100036.81;5196069;28;20035;-76
2021/10/30 06:32:52;;;;;;;11.13;6.13;;;;;;;11.33;100.00;100027.16;5197400;28;20505;-76
2021/10/30 06:35:23;;;;;;;12.57;7.20;;;;;;;11.34;100.00;100025.28;5197524;28;20128;-75
2021/10/30 06:37:56;;;;;;;10.73;6.13;;;;;;;11.33;100.00;100026.31;5196998;28;20017;-75
2021/10/30 06:40:26;;;;;;;11.70;6.30;;;;;;;11.32;100.00;100022.81;5195609;28;20988;-75
2021/10/30 06:42:57;;;;;;;11.05;6.25;;;;;;;11.32;100.00;100021.97;5196651;28;20045;-75
2021/10/30 06:45:27;;;;;;;14.95;7.22;;;;;;;11.34;100.00;100025.28;5196131;28;20021;-76
2021/10/30 06:47:57;;;;;;;10.75;5.90;;;;;;;11.34;100.00;100027.97;5211773;28;20029;-76
2021/10/30 06:50:30;;;;;;;8.70;5.78;;;;;;;11.37;100.00;100022.25;5210428;28;20553;-76
2021/10/30 06:53:01;;;;;;;10.88;6.45;;;;;;;11.37;100.00;100022.25;5194919;28;20658;-75
2021/10/30 06:55:31;;;;;;;11.98;6.75;;;;;;;11.36;100.00;100017.91;5195917;28;20048;-76
2021/10/30 06:58:02;;;;;;;11.02;6.18;;;;;;;11.39;100.00;100017.50;5194828;28;20032;-76
2021/10/30 07:00:33;;;;;;;9.85;6.05;;;;;;;11.39;100.00;100015.63;5202244;28;20030;-75
2021/10/30 07:03:06;;;;;;;8.52;6.35;;;;;;;11.41;100.00;100010.91;5211839;28;20093;-75
2021/10/30 07:05:37;;;;;;;8.80;5.80;;;;;;;11.39;100.00;100018.31;5196899;28;20398;-76
2021/10/30 07:08:07;;;;;;;13.25;7.00;;;;;;;11.39;100.00;100014.81;5200240;28;20038;-75
2021/10/30 07:10:38;;;;;;;15.02;7.15;;;;;;;11.44;100.00;100011.56;5214953;28;20029;-76
2021/10/30 07:13:08;;;;;;;14.90;6.75;;;;;;;11.44;100.00;100015.06;5200066;28;20405;-75
2021/10/30 07:15:39;;;;;;;13.63;7.10;;;;;;;11.46;100.00;100007.66;5198505;28;20021;-76
2021/10/30 07:18:10;;;;;;;12.70;6.70;;;;;;;11.47;100.00;100012.00;5165560;28;20049;-75
2021/10/30 07:20:40;;;;;;;13.18;6.80;;;;;;;11.46;100.00;100009.53;5198979;28;20164;-76
2021/10/30 07:23:11;;;;;;;10.90;5.95;;;;;;;11.51;100.00;100017.84;5200021;28;20394;-75
2021/10/30 07:25:41;;;;;;;12.73;6.18;;;;;;;11.54;100.00;100018.25;5214556;28;20055;-76
2021/10/30 07:28:12;;;;;;;10.05;6.20;;;;;;;11.56;100.00;100004.66;5198385;28;20096;-75
2021/10/30 07:30:43;;;;;;;12.95;5.22;;;;;;;11.61;100.00;100005.72;5198472;28;20112;-76
2021/10/30 07:33:13;;;;;;;12.20;5.20;;;;;;;11.59;100.00;100010.44;5199632;28;20024;-76
2021/10/30 07:35:44;;;;;;;9.27;4.88;;;;;;;11.59;100.00;100021.19;5199146;28;20102;-75
2021/10/30 07:38:15;;;;;;;9.40;4.97;;;;;;;11.61;100.00;100007.59;5198343;28;20021;-76
2021/10/30 07:40:46;;;;;;;8.65;5.25;;;;;;;11.62;100.00;100010.06;5196064;28;20018;-76
2021/10/30 07:43:17;;;;;;;7.40;4.47;;;;;;;11.63;100.00;100010.91;5198056;28;20363;-76
2021/10/30 07:45:47;;;;;;;5.72;4.15;;;;;;;11.64;100.00;100001.81;5202924;28;20025;-76
2021/10/30 07:48:18;;;;;;;8.25;4.55;;;;;;;11.66;100.00;100005.97;5213197;28;20017;-76
2021/10/30 07:50:49;;;;;;;9.52;4.40;;;;;;;11.67;100.00;100004.94;5196148;28;20064;-77
2021/10/30 07:53:19;;;;;;;6.45;4.30;;;;;;;11.68;100.00;100011.16;5197131;28;20048;-76
2021/10/30 07:55:49;;;;;;;10.50;5.55;;;;;;;11.71;100.00;100007.25;5210537;28;20022;-76
2021/10/30 07:58:20;;;;;;;7.60;4.47;;;;;;;11.72;100.00;100016.97;5197878;28;21110;-77
2021/10/30 08:00:50;;;;;;;8.30;4.45;;;;;;;11.73;100.00;100016.78;5212611;28;20025;-77
2021/10/30 08:03:21;;;;;;;11.45;4.65;;;;;;;11.75;100.00;100012.06;5214055;28;20048;-77
2021/10/30 08:05:52;;;;;;;8.77;4.20;;;;;;;11.78;100.00;100013.50;5197633;28;20128;-76
2021/10/30 08:08:23;;;;;;;6.93;4.35;;;;;;;11.80;100.00;100014.16;5212119;28;20017;-75
2021/10/30 08:10:53;;;;;;;7.28;4.35;;;;;;;11.82;100.00;100010.28;5196335;28;20035;-76
2021/10/30 08:13:24;;;;;;;12.45;4.80;;;;;;;11.82;100.00;100012.13;5212559;28;20060;-76
2021/10/30 08:15:55;;;;;;;13.20;5.00;;;;;;;11.85;100.00;100001.84;5201318;28;20029;-76
2021/10/30 08:18:25;;;;;;;13.63;4.45;;;;;;;11.85;100.00;100009.06;5196117;28;20137;-77
2021/10/30 08:20:56;;;;;;;7.57;4.38;;;;;;;11.85;100.00;100007.22;5195360;28;20132;-76
2021/10/30 08:23:28;;;;;;;6.70;4.43;;;;;;;11.85;100.00;100007.22;5212516;28;20033;-76
2021/10/30 08:25:58;;;;;;;8.80;4.30;;;;;;;11.88;100.00;100009.50;5196854;28;20044;-76
2021/10/30 08:28:29;;;;;;;8.80;3.90;;;;;;;11.87;100.00;100009.69;5195799;28;20493;-73
2021/10/30 08:31:00;;;;;;;6.20;4.03;;;;;;;11.89;100.00;100013.00;5195722;28;20053;-77
2021/10/30 08:33:30;;;;;;;10.57;4.88;;;;;;;11.88;100.00;100000.59;5206290;28;20404;-77
2021/10/30 08:36:02;;;;;;;12.38;4.38;;;;;;;11.89;100.00;100008.47;5198656;28;20043;-78
2021/10/30 08:38:34;;;;;;;8.55;3.85;;;;;;;11.89;100.00;100010.31;5197516;28;20032;-77
2021/10/30 08:41:05;;;;;;;10.75;5.68;;;;;;;11.91;100.00;100010.97;5196699;28;20033;-77
2021/10/30 08:43:35;;;;;;;11.98;5.40;;;;;;;11.91;100.00;100008.28;5197622;28;20029;-76
2021/10/30 08:46:06;;;;;;;8.02;4.80;;;;;;;11.91;100.00;100008.28;5211820;28;20397;-77
2021/10/30 08:48:37;;;;;;;8.38;4.43;;;;;;;11.90;100.00;100020.06;5197077;28;20029;-77
2021/10/30 08:51:07;;;;;;;10.60;4.45;;;;;;;11.90;100.00;100009.31;5211468;28;20052;-76
2021/10/30 08:53:38;;;;;;;12.07;4.10;;;;;;;11.91;100.00;100009.09;5197164;28;20120;-77
2021/10/30 08:56:09;;;;;;;10.05;4.65;;;;;;;11.92;100.00;100004.56;5196733;28;20030;-77
2021/10/30 08:58:39;;;;;;;11.52;4.60;;;;;;;11.92;100.00;100004.56;5196190;28;20124;-77
2021/10/30 09:01:10;;;;;;;9.25;4.70;;;;;;;11.89;100.00;99999.56;5211233;28;20033;-77
2021/10/30 09:03:41;;;;;;;8.20;4.50;;;;;;;11.87;100.00;99999.78;5186969;28;20082;-76
2021/10/30 09:06:14;;;;;;;8.77;4.30;;;;;;;11.87;100.00;99998.94;5195881;28;20025;-77
2021/10/30 09:08:44;;;;;;;11.15;4.53;;;;;;;11.88;100.00;100005.97;5202142;28;20036;-76
2021/10/30 09:11:18;;;;;;;9.82;4.82;;;;;;;11.88;100.00;100008.66;5211843;28;20009;-76
2021/10/30 09:13:55;;;;;;;8.85;4.50;;;;;;;11.90;100.00;100001.25;5198210;28;20025;-76
2021/10/30 09:16:26;;;;;;;8.73;4.68;;;;;;;11.91;100.00;100001.03;5195773;28;20034;-77
2021/10/30 09:18:56;;;;;;;9.88;4.88;;;;;;;11.93;100.00;100003.53;5226637;28;20420;-76
2021/10/30 09:21:32;;;;;;;9.30;4.57;;;;;;;11.96;100.00;100000.47;5195210;28;20033;-76
2021/10/30 09:24:11;;;;;;;6.35;4.55;;;;;;;11.95;100.00;100001.50;5195760;28;20121;-76
2021/10/30 09:26:51;;;;;;;8.98;4.28;;;;;;;11.96;100.00;99994.25;5195591;28;20056;-77
2021/10/30 09:29:22;;;;;;;9.27;4.68;;;;;;;11.95;100.00;99988.06;5194945;28;20029;-76
2021/10/30 09:32:14;;;;;;;7.65;4.55;;;;;;;11.95;100.00;99984.50;5196768;28;20535;-77
2021/10/30 09:34:45;;;;;;;9.18;4.57;;;;;;;11.97;100.00;99977.94;5195298;28;20759;-77
2021/10/30 09:37:34;;;;;;;11.05;5.07;;;;;;;11.98;100.00;99984.97;5211035;28;20018;-78
2021/10/30 09:40:23;;;;;;;6.60;4.07;;;;;;;12.05;100.00;99982.31;5194332;28;20028;-77
2021/10/30 09:43:07;;;;;;;6.65;4.40;;;;;;;12.07;100.00;99977.56;5213206;28;20485;-80
2021/10/30 09:45:42;;;;;;;5.95;3.88;;;;;;;12.12;100.00;99975.13;5178217;28;20098;-77
2021/10/30 09:48:16;;;;;;;7.70;4.20;;;;;;;12.16;100.00;99976.41;5204323;28;20017;-77
2021/10/30 09:50:48;;;;;;;5.95;3.53;;;;;;;12.17;100.00;99970.81;5196353;28;20087;-77
2021/10/30 09:53:30;;;;;;;6.57;3.95;;;;;;;12.19;100.00;99968.75;5195058;28;20678;-77
2021/10/30 09:56:05;;;;;;;6.22;3.38;;;;;;;12.21;100.00;99963.19;5195340;28;20588;-77
2021/10/30 09:58:40;;;;;;;7.75;3.60;;;;;;;12.23;100.00;99968.38;5209733;28;20144;-77
2021/10/30 10:01:15;;;;;;;4.95;3.17;;;;;;;12.26;100.00;99963.44;5213751;28;20461;-77
2021/10/30 10:03:47;;;;;;;5.82;3.28;;;;;;;12.30;100.00;99961.16;5204396;28;20025;-77
2021/10/30 10:06:23;;;;;;;4.88;3.60;;;;;;;12.33;100.00;99955.38;5199802;28;20037;-78
2021/10/30 10:08:53;;;;;;;5.18;3.17;;;;;;;12.34;100.00;99948.97;5210931;28;20441;-77
2021/10/30 10:11:25;;;;;;;5.20;2.85;;;;;;;12.39;100.00;99954.56;5191748;28;20056;-76
2021/10/30 10:13:56;;;;;;;5.00;2.85;;;;;;;12.46;100.00;99950.09;5194989;28;20026;-77
2021/10/30 10:16:28;;;;;;;4.07;3.15;;;;;;;12.48;100.00;99952.56;5194951;28;20414;-77
2021/10/30 10:18:59;;;;;;;5.88;2.97;;;;;;;12.55;100.00;99956.94;5194386;28;20057;-76
2021/10/30 10:21:34;;;;;;;6.72;3.33;;;;;;;12.56;100.00;99953.22;5209304;28;20033;-76
2021/10/30 10:24:13;;;;;;;6.43;3.35;;;;;;;12.56;100.00;99944.31;5195474;28;20029;-77
2021/10/30 10:26:52;;;;;;;8.30;3.47;;;;;;;12.66;100.00;99944.78;5195011;28;20032;-77
2021/10/30 10:29:33;;;;;;;5.18;2.75;;;;;;;12.72;100.00;99952.03;5194258;28;20036;-76
2021/10/30 10:32:08;;;;;;;5.22;2.78;;;;;;;12.84;100.00;99960.34;5194766;28;20025;-77
2021/10/30 10:34:41;;;;;;;3.50;3.05;;;;;;;13.03;100.00;99956.06;5201712;28;20128;-77
2021/10/30 10:37:12;;;;;;;4.05;3.13;;;;;;;13.21;100.00;99964.38;5194605;28;20052;-77
2021/10/30 10:39:44;;;;;;;5.45;2.45;;;;;;;13.36;100.00;99956.16;5195929;28;20107;-76
2021/10/30 10:42:36;;;;;;;8.23;2.45;;;;;;;13.38;100.00;99957.59;5198453;28;20406;-76
2021/10/30 10:45:09;;;;;;;4.07;2.55;;;;;;;13.38;100.00;99952.19;5200351;28;20065;-77
2021/10/30 10:47:39;;;;;;;3.33;1.98;;;;;;;13.33;100.00;99948.47;5198687;28;20436;-77
2021/10/30 10:50:21;;;;;;;4.13;2.22;;;;;;;13.32;100.00;99946.81;5198873;28;20030;-78
2021/10/30 10:53:06;;;;;;;4.35;2.08;;;;;;;13.34;100.00;99958.19;5199941;28;20021;-77
2021/10/30 10:55:57;;;;;;;4.45;1.98;;;;;;;13.36;100.00;99950.75;5199956;28;20029;-77
2021/10/30 10:58:29;;;;;;;5.20;2.50;;;;;;;13.37;100.00;99949.72;5199315;28;20037;-76
2021/10/30 11:01:11;;;;;;;2.85;2.00;;;;;;;13.31;100.00;99940.59;5214989;28;20119;-76
2021/10/30 11:03:44;;;;;;;24.98;3.83;;;;;;;13.41;100.00;99934.81;5187903;28;20025;-76
2021/10/30 11:06:15;;;;;;;3.40;1.85;;;;;;;13.52;100.00;99936.06;5216059;28;20037;-76
2021/10/30 11:08:45;;;;;;;3.58;1.83;;;;;;;13.52;100.00;99928.78;5215606;28;20437;-77
2021/10/30 11:11:21;;;;;;;2.13;1.45;;;;;;;13.58;100.00;99919.88;5192666;28;20049;-77
2021/10/30 11:13:56;;;;;;;3.05;1.35;;;;;;;13.68;100.00;99919.44;5200441;28;20047;-76
2021/10/30 11:16:33;;;;;;;2.45;1.40;;;;;;;13.77;100.00;99920.06;5199867;28;20030;-76
2021/10/30 11:19:07;;;;;;;2.97;1.60;;;;;;;13.69;100.00;99916.53;5199047;28;20493;-76
2021/10/30 11:21:44;;;;;;;2.00;1.40;;;;;;;13.68;100.00;99917.59;5199507;28;20030;-76
2021/10/30 11:24:21;;;;;;;2.25;1.60;;;;;;;13.74;100.00;99918.59;5198259;28;20036;-76
2021/10/30 11:26:55;;;;;;;1.58;1.17;;;;;;;13.74;100.00;99916.72;5197998;28;20033;-76
2021/10/30 11:29:27;;;;;;;2.67;1.60;;;;;;;13.80;100.00;99919.63;5198412;28;20139;-77
2021/10/30 11:32:00;;;;;;;4.45;1.42;;;;;;;13.80;100.00;99911.53;5199588;28;20037;-77
2021/10/30 11:34:31;;;;;;;2.38;1.23;;;;;;;13.77;100.00;99909.28;5199618;28;20028;-77